This is the latest recevied weather packets stored in our database for station/object SP9MLI-1. If no packets are shown the sender has not sent any weather packets the latest 10 day(s).
| Time | Temp. | Humidity | Pressure | Rain* | Wind** | Luminosity | Snow |
|---|---|---|---|---|---|---|---|
| 1778144892 | 10.56° C | 87% | 1013 hPa | 0 mm | - | - | - |
| 1778143993 | 10° C | 85% | 1013 hPa | 0 mm | - | - | - |
| 1778143092 | 9.44° C | 91% | 1012 hPa | 0 mm | - | - | - |
| 1778142193 | 8.33° C | 91% | 1012 hPa | 0 mm | - | - | - |
| 1778141292 | 7.78° C | 94% | 1012 hPa | 0 mm | - | - | - |
| 1778140392 | 7.22° C | 95% | 1011.3 hPa | 0 mm | - | - | - |
| 1778139492 | 6.67° C | 97% | 1010.9 hPa | 0 mm | - | - | - |
| 1778138593 | 6.11° C | 99% | 1010.9 hPa | 0 mm | - | - | - |
| 1778137692 | 6.11° C | 99% | 1010.9 hPa | 0 mm | - | - | - |
| 1778136792 | 5.56° C | 99% | 1010.6 hPa | 0 mm | - | - | - |
| 1778135892 | 5.56° C | 99% | 1010.3 hPa | 0 mm | - | - | - |
| 1778134992 | 5.56° C | 99% | 1009.9 hPa | 0 mm | - | - | - |
| 1778134092 | 5.56° C | 99% | 1009.9 hPa | 0 mm | - | - | - |
| 1778133192 | 5.56° C | 99% | 1009.9 hPa | 0 mm | - | - | - |
| 1778132292 | 5.56° C | 99% | 1009.6 hPa | 0 mm | - | - | - |
| 1778131392 | 5.56° C | 99% | 1009.3 hPa | 0 mm | - | - | - |
| 1778130492 | 5.56° C | 99% | 1009.3 hPa | 0 mm | - | - | - |
| 1778129592 | 5.56° C | 99% | 1008.6 hPa | 0 mm | - | - | - |
| 1778128692 | 5.56° C | 99% | 1008.6 hPa | 0 mm | - | - | - |
| 1778127792 | 5.56° C | 99% | 1008.6 hPa | 0 mm | - | - | - |
| 1778126893 | 5.56° C | 99% | 1008.6 hPa | 0 mm | - | - | - |
| 1778125992 | 5.56° C | 99% | 1008.6 hPa | 0 mm | - | - | - |
| 1778125091 | 5.56° C | 99% | 1008.6 hPa | 0 mm | - | - | - |
| 1778124192 | 5.56° C | 99% | 1008.6 hPa | 0 mm | - | - | - |
| 1778123292 | 5° C | 99% | 1008.2 hPa | 0 mm | - | - | - |
* Rain latest hour (hover to see other rain measurements)
** Current wind speed in m/s (hover to see current wind gust speed)